sensor_id;sensor_type;location;lat;lon;timestamp;P1;durP1;ratioP1;P2;durP2;ratioP2
8199;SDS011;4141;47.880;12.340;2022-11-11T00:01:29;4.27;;;3.13;;
8199;SDS011;4141;47.880;12.340;2022-11-11T00:04:04;5.97;;;3.70;;
8199;SDS011;4141;47.880;12.340;2022-11-11T00:06:34;4.50;;;3.50;;
8199;SDS011;4141;47.880;12.340;2022-11-11T00:09:02;3.87;;;2.60;;
8199;SDS011;4141;47.880;12.340;2022-11-11T00:11:36;4.77;;;3.37;;
8199;SDS011;4141;47.880;12.340;2022-11-11T00:14:05;6.60;;;4.50;;
8199;SDS011;4141;47.880;12.340;2022-11-11T00:16:33;5.13;;;3.33;;
8199;SDS011;4141;47.880;12.340;2022-11-11T00:19:15;11.00;;;3.47;;
8199;SDS011;4141;47.880;12.340;2022-11-11T00:22:02;7.70;;;3.97;;
8199;SDS011;4141;47.880;12.340;2022-11-11T00:24:49;3.87;;;3.27;;
8199;SDS011;4141;47.880;12.340;2022-11-11T00:27:37;4.80;;;2.90;;
8199;SDS011;4141;47.880;12.340;2022-11-11T00:30:06;5.80;;;3.57;;
8199;SDS011;4141;47.880;12.340;2022-11-11T00:32:36;5.73;;;3.60;;
8199;SDS011;4141;47.880;12.340;2022-11-11T00:35:04;5.13;;;3.10;;
8199;SDS011;4141;47.880;12.340;2022-11-11T00:37:51;8.50;;;3.73;;
8199;SDS011;4141;47.880;12.340;2022-11-11T00:40:19;5.57;;;3.30;;
8199;SDS011;4141;47.880;12.340;2022-11-11T00:42:50;9.33;;;3.93;;
8199;SDS011;4141;47.880;12.340;2022-11-11T00:45:18;6.80;;;3.97;;
8199;SDS011;4141;47.880;12.340;2022-11-11T00:47:48;7.70;;;4.93;;
8199;SDS011;4141;47.880;12.340;2022-11-11T00:50:33;8.37;;;4.23;;
8199;SDS011;4141;47.880;12.340;2022-11-11T00:53:21;6.30;;;4.33;;
8199;SDS011;4141;47.880;12.340;2022-11-11T00:55:53;7.57;;;4.50;;
8199;SDS011;4141;47.880;12.340;2022-11-11T00:58:21;5.80;;;3.77;;
8199;SDS011;4141;47.880;12.340;2022-11-11T01:00:51;6.07;;;4.10;;
8199;SDS011;4141;47.880;12.340;2022-11-11T01:03:22;5.57;;;4.30;;
8199;SDS011;4141;47.880;12.340;2022-11-11T01:05:50;6.10;;;3.97;;
8199;SDS011;4141;47.880;12.340;2022-11-11T01:08:18;7.90;;;4.67;;
8199;SDS011;4141;47.880;12.340;2022-11-11T01:10:49;11.90;;;4.23;;
8199;SDS011;4141;47.880;12.340;2022-11-11T01:13:21;6.43;;;4.40;;
8199;SDS011;4141;47.880;12.340;2022-11-11T01:15:57;7.00;;;3.67;;
8199;SDS011;4141;47.880;12.340;2022-11-11T01:18:26;5.43;;;4.40;;
8199;SDS011;4141;47.880;12.340;2022-11-11T01:21:00;10.30;;;5.80;;
8199;SDS011;4141;47.880;12.340;2022-11-11T01:23:31;6.10;;;4.43;;
8199;SDS011;4141;47.880;12.340;2022-11-11T01:26:00;7.87;;;3.90;;
8199;SDS011;4141;47.880;12.340;2022-11-11T01:28:29;5.27;;;3.10;;
8199;SDS011;4141;47.880;12.340;2022-11-11T01:31:01;4.20;;;3.70;;
8199;SDS011;4141;47.880;12.340;2022-11-11T01:33:30;8.60;;;3.13;;
8199;SDS011;4141;47.880;12.340;2022-11-11T01:36:06;4.87;;;4.37;;
8199;SDS011;4141;47.880;12.340;2022-11-11T01:38:36;11.23;;;6.37;;
8199;SDS011;4141;47.880;12.340;2022-11-11T01:41:05;7.50;;;3.70;;
8199;SDS011;4141;47.880;12.340;2022-11-11T01:43:48;4.50;;;3.40;;
8199;SDS011;4141;47.880;12.340;2022-11-11T01:46:19;5.97;;;3.90;;
8199;SDS011;4141;47.880;12.340;2022-11-11T01:48:51;9.40;;;4.20;;
8199;SDS011;4141;47.880;12.340;2022-11-11T01:51:40;6.00;;;3.23;;
8199;SDS011;4141;47.880;12.340;2022-11-11T01:54:11;6.77;;;3.57;;
8199;SDS011;4141;47.880;12.340;2022-11-11T01:56:42;4.40;;;3.63;;
8199;SDS011;4141;47.880;12.340;2022-11-11T01:59:13;5.60;;;3.60;;
8199;SDS011;4141;47.880;12.340;2022-11-11T02:01:43;8.93;;;4.30;;
8199;SDS011;4141;47.880;12.340;2022-11-11T02:04:12;7.87;;;3.60;;
8199;SDS011;4141;47.880;12.340;2022-11-11T02:07:03;4.33;;;3.47;;
8199;SDS011;4141;47.880;12.340;2022-11-11T02:09:36;11.03;;;3.43;;
8199;SDS011;4141;47.880;12.340;2022-11-11T02:12:07;3.90;;;2.80;;
8199;SDS011;4141;47.880;12.340;2022-11-11T02:14:56;3.90;;;3.00;;
8199;SDS011;4141;47.880;12.340;2022-11-11T02:17:28;3.30;;;2.40;;
8199;SDS011;4141;47.880;12.340;2022-11-11T02:19:59;3.77;;;3.07;;
8199;SDS011;4141;47.880;12.340;2022-11-11T02:22:41;3.97;;;2.90;;
8199;SDS011;4141;47.880;12.340;2022-11-11T02:25:17;3.47;;;2.87;;
8199;SDS011;4141;47.880;12.340;2022-11-11T02:27:49;4.90;;;3.23;;
8199;SDS011;4141;47.880;12.340;2022-11-11T02:30:20;3.50;;;2.70;;
8199;SDS011;4141;47.880;12.340;2022-11-11T02:32:49;4.20;;;3.20;;
8199;SDS011;4141;47.880;12.340;2022-11-11T02:35:19;4.53;;;3.07;;
8199;SDS011;4141;47.880;12.340;2022-11-11T02:37:49;3.63;;;2.70;;
8199;SDS011;4141;47.880;12.340;2022-11-11T02:40:22;8.97;;;3.20;;
8199;SDS011;4141;47.880;12.340;2022-11-11T02:42:52;6.40;;;3.57;;
8199;SDS011;4141;47.880;12.340;2022-11-11T02:45:20;3.50;;;2.93;;
8199;SDS011;4141;47.880;12.340;2022-11-11T02:47:49;6.70;;;3.50;;
8199;SDS011;4141;47.880;12.340;2022-11-11T02:50:19;6.60;;;4.10;;
8199;SDS011;4141;47.880;12.340;2022-11-11T02:52:49;4.47;;;3.10;;
8199;SDS011;4141;47.880;12.340;2022-11-11T02:55:17;5.07;;;4.17;;
8199;SDS011;4141;47.880;12.340;2022-11-11T02:57:47;5.77;;;3.97;;
8199;SDS011;4141;47.880;12.340;2022-11-11T03:00:16;10.50;;;3.93;;
8199;SDS011;4141;47.880;12.340;2022-11-11T03:02:46;5.30;;;3.10;;
8199;SDS011;4141;47.880;12.340;2022-11-11T03:05:14;5.90;;;3.80;;
8199;SDS011;4141;47.880;12.340;2022-11-11T03:07:43;4.90;;;3.77;;
8199;SDS011;4141;47.880;12.340;2022-11-11T03:10:12;5.30;;;3.70;;
8199;SDS011;4141;47.880;12.340;2022-11-11T03:12:40;5.97;;;3.23;;
8199;SDS011;4141;47.880;12.340;2022-11-11T03:15:10;4.73;;;3.67;;
8199;SDS011;4141;47.880;12.340;2022-11-11T03:17:40;4.13;;;3.40;;
8199;SDS011;4141;47.880;12.340;2022-11-11T03:20:08;10.00;;;3.90;;
8199;SDS011;4141;47.880;12.340;2022-11-11T03:22:59;6.93;;;3.40;;
8199;SDS011;4141;47.880;12.340;2022-11-11T03:25:28;6.80;;;3.43;;
8199;SDS011;4141;47.880;12.340;2022-11-11T03:28:06;8.27;;;3.60;;
8199;SDS011;4141;47.880;12.340;2022-11-11T03:30:50;5.00;;;3.67;;
8199;SDS011;4141;47.880;12.340;2022-11-11T03:33:20;6.37;;;4.70;;
8199;SDS011;4141;47.880;12.340;2022-11-11T03:35:50;9.20;;;3.97;;
8199;SDS011;4141;47.880;12.340;2022-11-11T03:38:19;11.57;;;4.10;;
8199;SDS011;4141;47.880;12.340;2022-11-11T03:40:52;5.00;;;3.43;;
8199;SDS011;4141;47.880;12.340;2022-11-11T03:43:22;11.07;;;3.00;;
8199;SDS011;4141;47.880;12.340;2022-11-11T03:45:57;8.20;;;3.33;;
8199;SDS011;4141;47.880;12.340;2022-11-11T03:48:27;5.80;;;3.20;;
8199;SDS011;4141;47.880;12.340;2022-11-11T03:50:59;4.60;;;3.70;;
8199;SDS011;4141;47.880;12.340;2022-11-11T03:53:27;6.33;;;3.57;;
8199;SDS011;4141;47.880;12.340;2022-11-11T03:55:58;4.10;;;3.00;;
8199;SDS011;4141;47.880;12.340;2022-11-11T03:58:29;5.80;;;3.33;;
8199;SDS011;4141;47.880;12.340;2022-11-11T04:01:01;4.50;;;3.03;;
8199;SDS011;4141;47.880;12.340;2022-11-11T04:03:50;9.27;;;4.50;;
8199;SDS011;4141;47.880;12.340;2022-11-11T04:06:35;6.63;;;3.40;;
8199;SDS011;4141;47.880;12.340;2022-11-11T04:09:24;8.27;;;3.20;;
8199;SDS011;4141;47.880;12.340;2022-11-11T04:12:11;5.97;;;3.27;;
8199;SDS011;4141;47.880;12.340;2022-11-11T04:14:42;12.30;;;3.70;;
8199;SDS011;4141;47.880;12.340;2022-11-11T04:17:29;4.60;;;3.57;;
8199;SDS011;4141;47.880;12.340;2022-11-11T04:19:57;6.17;;;2.80;;
8199;SDS011;4141;47.880;12.340;2022-11-11T04:22:42;8.10;;;4.10;;
8199;SDS011;4141;47.880;12.340;2022-11-11T04:25:11;9.87;;;4.47;;
8199;SDS011;4141;47.880;12.340;2022-11-11T04:27:56;7.20;;;3.63;;
8199;SDS011;4141;47.880;12.340;2022-11-11T04:30:38;15.90;;;4.80;;
8199;SDS011;4141;47.880;12.340;2022-11-11T04:33:09;7.50;;;4.07;;
8199;SDS011;4141;47.880;12.340;2022-11-11T04:35:37;5.97;;;3.47;;
8199;SDS011;4141;47.880;12.340;2022-11-11T04:38:05;7.17;;;3.30;;
8199;SDS011;4141;47.880;12.340;2022-11-11T04:40:50;4.27;;;3.20;;
8199;SDS011;4141;47.880;12.340;2022-11-11T04:43:31;6.67;;;3.27;;
8199;SDS011;4141;47.880;12.340;2022-11-11T04:46:19;7.60;;;4.47;;
8199;SDS011;4141;47.880;12.340;2022-11-11T04:48:48;10.00;;;5.60;;
8199;SDS011;4141;47.880;12.340;2022-11-11T04:51:17;12.63;;;4.70;;
8199;SDS011;4141;47.880;12.340;2022-11-11T04:53:46;16.73;;;5.13;;
8199;SDS011;4141;47.880;12.340;2022-11-11T04:56:14;12.40;;;5.10;;
8199;SDS011;4141;47.880;12.340;2022-11-11T04:59:00;9.97;;;4.57;;
8199;SDS011;4141;47.880;12.340;2022-11-11T05:01:45;9.50;;;3.80;;
8199;SDS011;4141;47.880;12.340;2022-11-11T05:04:33;8.63;;;4.57;;
8199;SDS011;4141;47.880;12.340;2022-11-11T05:07:01;16.13;;;6.73;;
8199;SDS011;4141;47.880;12.340;2022-11-11T05:09:47;14.47;;;5.43;;
8199;SDS011;4141;47.880;12.340;2022-11-11T05:12:15;19.73;;;5.17;;
8199;SDS011;4141;47.880;12.340;2022-11-11T05:14:43;13.03;;;5.20;;
8199;SDS011;4141;47.880;12.340;2022-11-11T05:17:29;11.87;;;4.60;;
8199;SDS011;4141;47.880;12.340;2022-11-11T05:20:29;18.43;;;5.80;;
8199;SDS011;4141;47.880;12.340;2022-11-11T05:23:13;11.10;;;6.13;;
8199;SDS011;4141;47.880;12.340;2022-11-11T05:25:42;17.20;;;9.50;;
8199;SDS011;4141;47.880;12.340;2022-11-11T05:28:10;17.33;;;7.90;;
8199;SDS011;4141;47.880;12.340;2022-11-11T05:30:38;12.70;;;7.07;;
8199;SDS011;4141;47.880;12.340;2022-11-11T05:33:06;11.27;;;6.77;;
8199;SDS011;4141;47.880;12.340;2022-11-11T05:35:46;10.40;;;6.50;;
8199;SDS011;4141;47.880;12.340;2022-11-11T05:38:14;19.20;;;5.60;;
8199;SDS011;4141;47.880;12.340;2022-11-11T05:40:48;11.83;;;6.40;;
8199;SDS011;4141;47.880;12.340;2022-11-11T05:43:19;12.60;;;6.13;;
8199;SDS011;4141;47.880;12.340;2022-11-11T05:45:47;8.20;;;5.50;;
8199;SDS011;4141;47.880;12.340;2022-11-11T05:48:16;8.70;;;3.90;;
8199;SDS011;4141;47.880;12.340;2022-11-11T05:50:45;6.10;;;4.10;;
8199;SDS011;4141;47.880;12.340;2022-11-11T05:53:13;4.80;;;3.50;;
8199;SDS011;4141;47.880;12.340;2022-11-11T05:55:42;7.10;;;4.00;;
8199;SDS011;4141;47.880;12.340;2022-11-11T05:58:10;6.47;;;4.17;;
8199;SDS011;4141;47.880;12.340;2022-11-11T06:00:38;7.57;;;4.23;;
8199;SDS011;4141;47.880;12.340;2022-11-11T06:03:06;7.47;;;4.60;;
8199;SDS011;4141;47.880;12.340;2022-11-11T06:05:34;7.60;;;4.43;;
8199;SDS011;4141;47.880;12.340;2022-11-11T06:08:04;6.23;;;4.50;;
8199;SDS011;4141;47.880;12.340;2022-11-11T06:10:32;8.93;;;5.37;;
8199;SDS011;4141;47.880;12.340;2022-11-11T06:13:01;8.00;;;5.80;;
8199;SDS011;4141;47.880;12.340;2022-11-11T06:15:30;9.70;;;5.10;;
8199;SDS011;4141;47.880;12.340;2022-11-11T06:17:59;11.60;;;5.80;;
8199;SDS011;4141;47.880;12.340;2022-11-11T06:20:28;7.57;;;5.40;;
8199;SDS011;4141;47.880;12.340;2022-11-11T06:22:56;10.80;;;6.47;;
8199;SDS011;4141;47.880;12.340;2022-11-11T06:25:27;9.33;;;6.50;;
8199;SDS011;4141;47.880;12.340;2022-11-11T06:28:14;10.53;;;6.53;;
8199;SDS011;4141;47.880;12.340;2022-11-11T06:30:42;15.23;;;6.83;;
8199;SDS011;4141;47.880;12.340;2022-11-11T06:33:16;12.40;;;7.47;;
8199;SDS011;4141;47.880;12.340;2022-11-11T06:35:45;11.10;;;7.63;;
8199;SDS011;4141;47.880;12.340;2022-11-11T06:38:13;9.70;;;6.77;;
8199;SDS011;4141;47.880;12.340;2022-11-11T06:40:42;10.37;;;6.87;;
8199;SDS011;4141;47.880;12.340;2022-11-11T06:43:17;11.23;;;7.23;;
8199;SDS011;4141;47.880;12.340;2022-11-11T06:45:49;9.50;;;5.87;;
8199;SDS011;4141;47.880;12.340;2022-11-11T06:48:18;10.10;;;4.97;;
8199;SDS011;4141;47.880;12.340;2022-11-11T06:50:47;10.80;;;4.97;;
8199;SDS011;4141;47.880;12.340;2022-11-11T06:53:16;12.50;;;6.30;;
8199;SDS011;4141;47.880;12.340;2022-11-11T06:55:51;11.03;;;4.97;;
8199;SDS011;4141;47.880;12.340;2022-11-11T06:58:23;7.70;;;3.67;;
8199;SDS011;4141;47.880;12.340;2022-11-11T07:00:52;5.63;;;3.47;;
8199;SDS011;4141;47.880;12.340;2022-11-11T07:03:25;12.20;;;3.40;;
8199;SDS011;4141;47.880;12.340;2022-11-11T07:05:54;8.77;;;3.00;;
8199;SDS011;4141;47.880;12.340;2022-11-11T07:08:25;10.63;;;3.87;;
8199;SDS011;4141;47.880;12.340;2022-11-11T07:10:56;4.40;;;3.03;;
8199;SDS011;4141;47.880;12.340;2022-11-11T07:13:36;3.10;;;2.00;;
8199;SDS011;4141;47.880;12.340;2022-11-11T07:16:05;3.00;;;2.00;;
8199;SDS011;4141;47.880;12.340;2022-11-11T07:18:37;5.37;;;4.87;;
8199;SDS011;4141;47.880;12.340;2022-11-11T07:21:06;4.10;;;3.70;;
8199;SDS011;4141;47.880;12.340;2022-11-11T07:23:35;3.97;;;2.80;;
8199;SDS011;4141;47.880;12.340;2022-11-11T07:26:05;6.93;;;2.80;;
8199;SDS011;4141;47.880;12.340;2022-11-11T07:28:34;4.43;;;2.30;;
8199;SDS011;4141;47.880;12.340;2022-11-11T07:31:03;5.70;;;2.43;;
8199;SDS011;4141;47.880;12.340;2022-11-11T07:33:33;2.83;;;2.20;;
8199;SDS011;4141;47.880;12.340;2022-11-11T07:36:05;4.90;;;2.70;;
8199;SDS011;4141;47.880;12.340;2022-11-11T07:38:33;2.57;;;1.60;;
8199;SDS011;4141;47.880;12.340;2022-11-11T07:41:03;2.70;;;1.63;;
8199;SDS011;4141;47.880;12.340;2022-11-11T07:43:37;1.83;;;1.30;;
8199;SDS011;4141;47.880;12.340;2022-11-11T07:46:06;4.77;;;2.07;;
8199;SDS011;4141;47.880;12.340;2022-11-11T07:48:37;3.10;;;1.40;;
8199;SDS011;4141;47.880;12.340;2022-11-11T07:51:09;4.60;;;1.37;;
8199;SDS011;4141;47.880;12.340;2022-11-11T07:53:40;3.90;;;2.20;;
8199;SDS011;4141;47.880;12.340;2022-11-11T07:56:09;46.27;;;17.07;;
8199;SDS011;4141;47.880;12.340;2022-11-11T07:58:40;9.47;;;4.73;;
8199;SDS011;4141;47.880;12.340;2022-11-11T08:01:08;7.60;;;2.87;;
8199;SDS011;4141;47.880;12.340;2022-11-11T08:03:37;8.87;;;2.50;;
8199;SDS011;4141;47.880;12.340;2022-11-11T08:06:15;5.53;;;2.00;;
8199;SDS011;4141;47.880;12.340;2022-11-11T08:08:44;6.03;;;1.47;;
8199;SDS011;4141;47.880;12.340;2022-11-11T08:11:13;1.60;;;1.33;;
8199;SDS011;4141;47.880;12.340;2022-11-11T08:13:43;6.30;;;4.10;;
8199;SDS011;4141;47.880;12.340;2022-11-11T08:16:10;7.80;;;4.83;;
8199;SDS011;4141;47.880;12.340;2022-11-11T08:18:40;8.03;;;3.90;;
8199;SDS011;4141;47.880;12.340;2022-11-11T08:21:08;9.50;;;4.13;;
8199;SDS011;4141;47.880;12.340;2022-11-11T08:23:37;3.90;;;2.90;;
8199;SDS011;4141;47.880;12.340;2022-11-11T08:26:25;4.40;;;3.10;;
8199;SDS011;4141;47.880;12.340;2022-11-11T08:28:56;4.73;;;2.73;;
8199;SDS011;4141;47.880;12.340;2022-11-11T08:31:25;5.67;;;2.23;;
8199;SDS011;4141;47.880;12.340;2022-11-11T08:33:53;3.47;;;2.07;;
8199;SDS011;4141;47.880;12.340;2022-11-11T08:36:22;2.00;;;1.80;;
8199;SDS011;4141;47.880;12.340;2022-11-11T08:38:52;3.57;;;1.70;;
8199;SDS011;4141;47.880;12.340;2022-11-11T08:41:20;3.60;;;2.10;;
8199;SDS011;4141;47.880;12.340;2022-11-11T08:43:52;5.57;;;1.97;;
8199;SDS011;4141;47.880;12.340;2022-11-11T08:46:22;3.70;;;1.70;;
8199;SDS011;4141;47.880;12.340;2022-11-11T08:48:51;4.30;;;1.97;;
8199;SDS011;4141;47.880;12.340;2022-11-11T08:51:19;3.67;;;2.00;;
8199;SDS011;4141;47.880;12.340;2022-11-11T08:53:47;3.37;;;1.80;;
8199;SDS011;4141;47.880;12.340;2022-11-11T08:56:16;2.43;;;2.07;;
8199;SDS011;4141;47.880;12.340;2022-11-11T08:58:44;2.97;;;1.93;;
8199;SDS011;4141;47.880;12.340;2022-11-11T09:01:12;5.57;;;1.80;;
8199;SDS011;4141;47.880;12.340;2022-11-11T09:03:43;6.17;;;3.30;;
8199;SDS011;4141;47.880;12.340;2022-11-11T09:06:12;4.47;;;2.27;;
8199;SDS011;4141;47.880;12.340;2022-11-11T09:08:41;8.20;;;2.30;;
8199;SDS011;4141;47.880;12.340;2022-11-11T09:11:10;9.97;;;3.27;;
8199;SDS011;4141;47.880;12.340;2022-11-11T09:13:38;5.10;;;2.47;;
8199;SDS011;4141;47.880;12.340;2022-11-11T09:16:07;11.37;;;2.60;;
8199;SDS011;4141;47.880;12.340;2022-11-11T09:18:36;5.27;;;2.40;;
8199;SDS011;4141;47.880;12.340;2022-11-11T09:21:06;4.80;;;2.63;;
8199;SDS011;4141;47.880;12.340;2022-11-11T09:23:34;10.53;;;3.20;;
8199;SDS011;4141;47.880;12.340;2022-11-11T09:26:02;6.33;;;3.30;;
8199;SDS011;4141;47.880;12.340;2022-11-11T09:28:30;3.97;;;3.10;;
8199;SDS011;4141;47.880;12.340;2022-11-11T09:31:00;6.70;;;3.67;;
8199;SDS011;4141;47.880;12.340;2022-11-11T09:33:48;4.50;;;3.67;;
8199;SDS011;4141;47.880;12.340;2022-11-11T09:36:18;3.73;;;2.77;;
8199;SDS011;4141;47.880;12.340;2022-11-11T09:38:47;5.60;;;3.17;;
8199;SDS011;4141;47.880;12.340;2022-11-11T09:41:17;5.37;;;3.30;;
8199;SDS011;4141;47.880;12.340;2022-11-11T09:43:51;5.07;;;2.77;;
8199;SDS011;4141;47.880;12.340;2022-11-11T09:46:32;3.80;;;2.00;;
8199;SDS011;4141;47.880;12.340;2022-11-11T09:49:07;3.47;;;2.60;;
8199;SDS011;4141;47.880;12.340;2022-11-11T09:51:45;6.50;;;2.80;;
8199;SDS011;4141;47.880;12.340;2022-11-11T09:54:16;4.60;;;2.70;;
8199;SDS011;4141;47.880;12.340;2022-11-11T09:56:48;3.17;;;2.67;;
8199;SDS011;4141;47.880;12.340;2022-11-11T09:59:17;2.80;;;1.97;;
8199;SDS011;4141;47.880;12.340;2022-11-11T10:01:49;6.03;;;2.50;;
8199;SDS011;4141;47.880;12.340;2022-11-11T10:04:26;2.97;;;1.83;;
8199;SDS011;4141;47.880;12.340;2022-11-11T10:07:01;4.13;;;2.17;;
8199;SDS011;4141;47.880;12.340;2022-11-11T10:09:34;2.07;;;1.87;;
8199;SDS011;4141;47.880;12.340;2022-11-11T10:12:08;2.90;;;1.90;;
8199;SDS011;4141;47.880;12.340;2022-11-11T10:14:39;3.40;;;2.10;;
8199;SDS011;4141;47.880;12.340;2022-11-11T10:17:14;3.23;;;1.60;;
8199;SDS011;4141;47.880;12.340;2022-11-11T10:19:51;4.83;;;1.80;;
8199;SDS011;4141;47.880;12.340;2022-11-11T10:22:30;1.87;;;1.40;;
8199;SDS011;4141;47.880;12.340;2022-11-11T10:25:06;3.07;;;1.90;;
8199;SDS011;4141;47.880;12.340;2022-11-11T10:27:43;4.37;;;1.80;;
8199;SDS011;4141;47.880;12.340;2022-11-11T10:30:15;3.77;;;1.70;;
8199;SDS011;4141;47.880;12.340;2022-11-11T10:32:51;2.03;;;1.70;;
8199;SDS011;4141;47.880;12.340;2022-11-11T10:35:21;2.80;;;1.93;;
8199;SDS011;4141;47.880;12.340;2022-11-11T10:37:54;3.73;;;1.70;;
8199;SDS011;4141;47.880;12.340;2022-11-11T10:40:41;2.20;;;1.50;;
8199;SDS011;4141;47.880;12.340;2022-11-11T10:43:13;1.90;;;1.60;;
8199;SDS011;4141;47.880;12.340;2022-11-11T10:45:48;2.53;;;1.67;;
8199;SDS011;4141;47.880;12.340;2022-11-11T10:48:20;2.47;;;1.80;;
8199;SDS011;4141;47.880;12.340;2022-11-11T10:50:53;4.27;;;1.50;;
8199;SDS011;4141;47.880;12.340;2022-11-11T10:53:28;3.10;;;2.17;;
8199;SDS011;4141;47.880;12.340;2022-11-11T10:56:00;7.80;;;1.80;;
8199;SDS011;4141;47.880;12.340;2022-11-11T10:58:32;2.53;;;1.50;;
8199;SDS011;4141;47.880;12.340;2022-11-11T11:01:05;5.87;;;1.90;;
8199;SDS011;4141;47.880;12.340;2022-11-11T11:03:35;12.53;;;1.70;;
8199;SDS011;4141;47.880;12.340;2022-11-11T11:06:05;5.67;;;2.30;;
8199;SDS011;4141;47.880;12.340;2022-11-11T11:08:38;1.90;;;1.53;;
8199;SDS011;4141;47.880;12.340;2022-11-11T11:11:12;2.80;;;1.33;;
8199;SDS011;4141;47.880;12.340;2022-11-11T11:13:44;2.17;;;1.50;;
8199;SDS011;4141;47.880;12.340;2022-11-11T11:16:16;1.93;;;1.30;;
8199;SDS011;4141;47.880;12.340;2022-11-11T11:21:47;1.80;;;1.37;;
8199;SDS011;4141;47.880;12.340;2022-11-11T11:24:21;1.80;;;1.10;;
8199;SDS011;4141;47.880;12.340;2022-11-11T11:26:52;2.13;;;1.53;;
8199;SDS011;4141;47.880;12.340;2022-11-11T11:29:25;2.00;;;1.30;;
8199;SDS011;4141;47.880;12.340;2022-11-11T11:31:55;1.90;;;1.40;;
8199;SDS011;4141;47.880;12.340;2022-11-11T11:34:38;1.90;;;1.30;;
8199;SDS011;4141;47.880;12.340;2022-11-11T11:37:13;1.93;;;1.33;;
8199;SDS011;4141;47.880;12.340;2022-11-11T11:39:44;1.80;;;1.30;;
8199;SDS011;4141;47.880;12.340;2022-11-11T11:42:29;2.07;;;1.17;;
8199;SDS011;4141;47.880;12.340;2022-11-11T11:45:08;2.23;;;1.20;;
8199;SDS011;4141;47.880;12.340;2022-11-11T11:47:50;2.50;;;1.17;;
8199;SDS011;4141;47.880;12.340;2022-11-11T11:50:47;2.67;;;1.20;;
8199;SDS011;4141;47.880;12.340;2022-11-11T11:53:24;1.50;;;0.97;;
8199;SDS011;4141;47.880;12.340;2022-11-11T11:56:06;1.90;;;1.70;;
8199;SDS011;4141;47.880;12.340;2022-11-11T11:58:54;2.90;;;1.10;;
8199;SDS011;4141;47.880;12.340;2022-11-11T12:01:26;2.83;;;1.90;;
8199;SDS011;4141;47.880;12.340;2022-11-11T12:07:15;2.80;;;2.17;;
8199;SDS011;4141;47.880;12.340;2022-11-11T12:09:52;3.83;;;1.67;;
8199;SDS011;4141;47.880;12.340;2022-11-11T12:12:35;2.90;;;1.40;;
8199;SDS011;4141;47.880;12.340;2022-11-11T12:15:10;1.73;;;1.07;;
8199;SDS011;4141;47.880;12.340;2022-11-11T12:17:48;3.57;;;1.53;;
8199;SDS011;4141;47.880;12.340;2022-11-11T12:20:22;3.93;;;1.50;;
8199;SDS011;4141;47.880;12.340;2022-11-11T12:22:58;2.40;;;0.90;;
8199;SDS011;4141;47.880;12.340;2022-11-11T12:25:36;1.13;;;0.83;;
8199;SDS011;4141;47.880;12.340;2022-11-11T12:28:30;2.30;;;1.10;;
8199;SDS011;4141;47.880;12.340;2022-11-11T12:31:11;1.00;;;0.70;;
8199;SDS011;4141;47.880;12.340;2022-11-11T12:33:53;2.17;;;1.13;;
8199;SDS011;4141;47.880;12.340;2022-11-11T12:36:28;1.17;;;0.60;;
8199;SDS011;4141;47.880;12.340;2022-11-11T12:39:03;3.20;;;1.20;;
8199;SDS011;4141;47.880;12.340;2022-11-11T12:41:38;1.80;;;1.20;;
8199;SDS011;4141;47.880;12.340;2022-11-11T12:44:14;1.77;;;1.10;;
8199;SDS011;4141;47.880;12.340;2022-11-11T12:46:46;2.80;;;1.40;;
8199;SDS011;4141;47.880;12.340;2022-11-11T12:52:15;2.80;;;1.40;;
8199;SDS011;4141;47.880;12.340;2022-11-11T12:54:55;7.10;;;3.70;;
8199;SDS011;4141;47.880;12.340;2022-11-11T12:57:34;3.70;;;2.57;;
8199;SDS011;4141;47.880;12.340;2022-11-11T13:00:09;10.13;;;8.23;;
8199;SDS011;4141;47.880;12.340;2022-11-11T13:02:47;5.10;;;3.73;;
8199;SDS011;4141;47.880;12.340;2022-11-11T13:05:33;1.80;;;1.30;;
8199;SDS011;4141;47.880;12.340;2022-11-11T13:11:06;4.00;;;2.30;;
8199;SDS011;4141;47.880;12.340;2022-11-11T13:13:42;3.50;;;2.10;;
8199;SDS011;4141;47.880;12.340;2022-11-11T13:16:19;1.40;;;1.00;;
8199;SDS011;4141;47.880;12.340;2022-11-11T13:18:50;1.70;;;1.00;;
8199;SDS011;4141;47.880;12.340;2022-11-11T13:21:23;2.70;;;1.50;;
8199;SDS011;4141;47.880;12.340;2022-11-11T13:23:54;12.90;;;7.53;;
8199;SDS011;4141;47.880;12.340;2022-11-11T13:26:25;4.13;;;2.90;;
8199;SDS011;4141;47.880;12.340;2022-11-11T13:29:02;10.30;;;1.60;;
8199;SDS011;4141;47.880;12.340;2022-11-11T13:31:39;2.50;;;1.33;;
8199;SDS011;4141;47.880;12.340;2022-11-11T13:34:08;2.53;;;1.23;;
8199;SDS011;4141;47.880;12.340;2022-11-11T13:36:40;1.47;;;0.80;;
8199;SDS011;4141;47.880;12.340;2022-11-11T13:39:20;2.43;;;1.40;;
8199;SDS011;4141;47.880;12.340;2022-11-11T13:41:51;2.00;;;1.30;;
8199;SDS011;4141;47.880;12.340;2022-11-11T13:44:21;3.57;;;1.20;;
8199;SDS011;4141;47.880;12.340;2022-11-11T13:46:54;2.50;;;0.77;;
8199;SDS011;4141;47.880;12.340;2022-11-11T13:49:29;1.73;;;1.10;;
8199;SDS011;4141;47.880;12.340;2022-11-11T13:52:00;5.23;;;1.13;;
8199;SDS011;4141;47.880;12.340;2022-11-11T13:54:30;1.50;;;0.87;;
8199;SDS011;4141;47.880;12.340;2022-11-11T13:57:00;1.97;;;0.97;;
8199;SDS011;4141;47.880;12.340;2022-11-11T13:59:31;1.60;;;1.07;;
8199;SDS011;4141;47.880;12.340;2022-11-11T14:02:26;1.87;;;1.03;;
8199;SDS011;4141;47.880;12.340;2022-11-11T14:07:58;1.77;;;1.13;;
8199;SDS011;4141;47.880;12.340;2022-11-11T14:13:36;9.60;;;2.53;;
8199;SDS011;4141;47.880;12.340;2022-11-11T14:16:10;1.57;;;1.13;;
8199;SDS011;4141;47.880;12.340;2022-11-11T14:18:41;8.03;;;1.70;;
8199;SDS011;4141;47.880;12.340;2022-11-11T14:21:10;1.83;;;1.13;;
8199;SDS011;4141;47.880;12.340;2022-11-11T14:23:39;4.37;;;0.90;;
8199;SDS011;4141;47.880;12.340;2022-11-11T14:28:57;3.30;;;1.23;;
8199;SDS011;4141;47.880;12.340;2022-11-11T14:37:47;3.40;;;1.00;;
8199;SDS011;4141;47.880;12.340;2022-11-11T14:40:25;1.90;;;1.00;;
8199;SDS011;4141;47.880;12.340;2022-11-11T14:42:58;1.90;;;0.80;;
8199;SDS011;4141;47.880;12.340;2022-11-11T14:54:21;2.90;;;1.70;;
8199;SDS011;4141;47.880;12.340;2022-11-11T14:57:06;3.17;;;1.77;;
8199;SDS011;4141;47.880;12.340;2022-11-11T14:59:37;8.27;;;1.63;;
8199;SDS011;4141;47.880;12.340;2022-11-11T15:02:09;2.80;;;1.70;;
8199;SDS011;4141;47.880;12.340;2022-11-11T15:04:45;5.90;;;1.93;;
8199;SDS011;4141;47.880;12.340;2022-11-11T15:07:20;14.50;;;1.90;;
8199;SDS011;4141;47.880;12.340;2022-11-11T15:16:05;4.77;;;1.10;;
8199;SDS011;4141;47.880;12.340;2022-11-11T15:18:46;2.83;;;1.33;;
8199;SDS011;4141;47.880;12.340;2022-11-11T15:21:23;6.40;;;1.90;;
8199;SDS011;4141;47.880;12.340;2022-11-11T15:24:00;11.33;;;1.60;;
8199;SDS011;4141;47.880;12.340;2022-11-11T15:26:36;2.17;;;1.33;;
8199;SDS011;4141;47.880;12.340;2022-11-11T15:29:11;7.10;;;4.60;;
8199;SDS011;4141;47.880;12.340;2022-11-11T15:31:50;9.60;;;3.90;;
8199;SDS011;4141;47.880;12.340;2022-11-11T15:34:25;7.93;;;4.87;;
8199;SDS011;4141;47.880;12.340;2022-11-11T15:36:58;15.67;;;9.83;;
8199;SDS011;4141;47.880;12.340;2022-11-11T15:39:34;7.43;;;5.20;;
8199;SDS011;4141;47.880;12.340;2022-11-11T15:42:09;6.13;;;3.57;;
8199;SDS011;4141;47.880;12.340;2022-11-11T15:44:39;7.27;;;3.57;;
8199;SDS011;4141;47.880;12.340;2022-11-11T15:47:10;10.90;;;3.53;;
8199;SDS011;4141;47.880;12.340;2022-11-11T15:49:41;10.90;;;7.37;;
8199;SDS011;4141;47.880;12.340;2022-11-11T15:52:23;22.40;;;14.13;;
8199;SDS011;4141;47.880;12.340;2022-11-11T15:54:54;27.37;;;17.00;;
8199;SDS011;4141;47.880;12.340;2022-11-11T15:57:23;21.87;;;12.07;;
8199;SDS011;4141;47.880;12.340;2022-11-11T15:59:53;11.90;;;7.50;;
8199;SDS011;4141;47.880;12.340;2022-11-11T16:02:22;10.63;;;6.00;;
8199;SDS011;4141;47.880;12.340;2022-11-11T16:04:54;6.60;;;4.73;;
8199;SDS011;4141;47.880;12.340;2022-11-11T16:07:24;9.70;;;5.03;;
8199;SDS011;4141;47.880;12.340;2022-11-11T16:09:55;6.23;;;4.17;;
8199;SDS011;4141;47.880;12.340;2022-11-11T16:12:27;7.30;;;3.40;;
8199;SDS011;4141;47.880;12.340;2022-11-11T16:14:58;8.57;;;3.53;;
8199;SDS011;4141;47.880;12.340;2022-11-11T16:17:32;7.13;;;2.93;;